• Join FlightAware (Why Join?)
  • Login
  • US Flag 
11:03PM EDT


 

Airport Tracker/Info


-or-


 

Live Flight TrackerFlight Track Log ✈ SWA3725 ✈ 05-Apr-2014 ✈ KMSY - KMCI

Flight Track Log - Related Links

Times and Time Zones

All times are in EDT time to prevent confusion due to time zone crossing. See the SWA3725 flight status page for this flight to view local times or setup timezone preferences in your user account.

Time Position Orientation Groundspeed Altitude Reporting Facility
EDT Latitude Longitude Course Direction KTS MPH feet Rate Location/Type
02:29PM 30.0425 -90.2369 11° North 172 198 2,000  Level Houston Center
02:29PM 30.0578 -90.2331 12° North 180 207 2,600 2,100 Climbing Houston Center
02:30PM 30.1028 -90.2247 North 243 280 4,100 1,980 Climbing Houston Center
02:31PM 30.1236 -90.2164 19° North 215 247 4,700 2,940 Climbing Houston Center
02:31PM 30.1772 -90.2000 15° North 294 338 7,100 3,360 Climbing Houston Center
02:32PM 30.2008 -90.1950 10° North 255 293 8,200 3,180 Climbing Houston Center
02:33PM 30.2919 -90.2431 336° Northwest 295 339 11,900 3,300 Climbing Houston Center
02:34PM 30.3797 -90.2903 335° Northwest 336 387 15,100 3,120 Climbing Houston Center
02:35PM 30.4753 -90.3378 337° Northwest 364 419 18,400 3,060 Climbing Houston Center
02:36PM 30.5706 -90.3822 338° Northwest 369 425 21,500 2,520 Climbing Houston Center
02:37PM 30.6703 -90.4289 338° Northwest 379 436 23,700 2,040 Climbing Houston Center
02:38PM 30.7786 -90.4722 341° North 404 465 25,800 2,220 Climbing Houston Center
02:39PM 30.9114 -90.5283 340° North 417 480 28,400 2,160 Climbing Houston Center
02:40PM 31.0244 -90.5756 340° North 426 490 30,300 1,980 Climbing Houston Center
02:41PM 31.1364 -90.6228 340° North 427 491 32,600 1,920 Climbing Houston Center
02:42PM 31.2461 -90.6683 340° North 420 483 34,400 1,800 Climbing Houston Center
02:43PM 31.3531 -90.7133 340° North 416 479 36,400 1,740 Climbing Houston Center
02:44PM 31.4550 -90.7586 339° North 397 457 38,000 720 Climbing Houston Center
02:45PM 31.5767 -90.8092 341° North 389 448 38,000  Level Houston Center
02:46PM 31.6778 -90.8508 341° North 386 444 38,000  Level Houston Center
02:47PM 31.7789 -90.8919 341° North 385 443 38,000  Level Houston Center
02:48PM 31.8811 -90.9347 340° North 385 443 38,000  Level Houston Center
02:49PM 31.9731 -90.9714 341° North 385 443 38,000 60 Level Memphis Center
02:50PM 32.0728 -91.0131 341° North 384 442 38,200 600 Climbing Memphis Center
02:51PM 32.1747 -91.0539 341° North 384 442 39,300 840 Climbing Memphis Center
02:52PM 32.2769 -91.0967 341° North 386 444 40,000 300 Climbing Memphis Center
02:53PM 32.3781 -91.1375 341° North 386 444 40,000  Level Memphis Center
02:54PM 32.4981 -91.1886 340° North 386 444 40,000  Level Memphis Center
02:55PM 32.5978 -91.2297 341° North 385 443 40,000  Level Memphis Center
02:56PM 32.6958 -91.2711 340° North 379 436 40,000  Level Memphis Center
02:57PM 32.7947 -91.3114 341° North 378 435 40,000  Level Memphis Center
02:58PM 32.8931 -91.3525 341° North 378 435 40,000  Level Memphis Center
02:59PM 32.9900 -91.3939 340° North 377 434 40,000  Level Memphis Center
03:00PM 33.1061 -91.4419 341° North 373 429 40,000  Level Memphis Center
03:01PM 33.2028 -91.4842 340° North 373 429 40,000  Level Memphis Center
03:02PM 33.2994 -91.5244 341° North 372 428 40,000  Level Memphis Center
03:03PM 33.3978 -91.5667 340° North 372 428 40,000  Level Memphis Center
03:04PM 33.4964 -91.6069 341° North 373 429 40,000  Level Memphis Center
03:05PM 33.5939 -91.6494 340° North 373 429 40,000  Level Memphis Center
03:07PM 33.7119 -91.6992 341° North 373 429 40,000  Level Memphis Center
03:08PM 33.8050 -91.7394 340° North 374 430 40,000  Level Memphis Center
03:09PM 33.9061 -91.7819 341° North 379 436 40,000  Level Memphis Center
03:10PM 34.0044 -91.8250 340° North 379 436 40,000  Level Memphis Center
03:11PM 34.1108 -91.8711 340° North 379 436 40,000  Level Memphis Center
03:12PM 34.2092 -91.9142 340° North 379 436 40,000  Level Memphis Center
03:13PM 34.3081 -91.9569 340° North 378 435 40,000  Level Memphis Center
03:14PM 34.4267 -92.0078 341° North 378 435 40,000  Level Memphis Center
03:15PM 34.5239 -92.0506 340° North 378 435 40,000  Level Memphis Center
03:16PM 34.6239 -92.0942 340° North 378 435 40,000  Level Memphis Center
03:17PM 34.7214 -92.1369 340° North 378 435 40,000  Level Memphis Center
03:18PM 34.8208 -92.1806 340° North 378 435 40,000  Level Memphis Center
03:19PM 34.9392 -92.2322 340° North 378 435 40,000  Level Memphis Center
03:20PM 35.0375 -92.2753 340° North 378 435 40,000  Level Memphis Center
03:21PM 35.1350 -92.3200 339° North 378 435 40,000  Level Memphis Center
03:22PM 35.2333 -92.3628 340° North 377 434 40,000  Level Memphis Center
03:23PM 35.3308 -92.4064 340° North 377 434 40,000  Level Memphis Center
03:24PM 35.4478 -92.4594 340° North 377 434 40,000  Level Memphis Center
03:25PM 35.5461 -92.5033 340° North 377 434 40,000  Level Memphis Center
03:26PM 35.6450 -92.5458 341° North 377 434 40,000  Level Memphis Center
03:27PM 35.7428 -92.5906 340° North 377 434 40,000  Level Memphis Center
03:28PM 35.8408 -92.6353 340° North 377 434 40,000  Level Memphis Center
03:29PM 35.9583 -92.6869 340° North 377 434 40,000  Level Memphis Center
03:30PM 36.0569 -92.7322 340° North 377 434 40,000  Level Memphis Center
03:31PM 36.1558 -92.7772 340° North 377 434 40,000  Level Memphis Center
03:32PM 36.2564 -92.8239 339° North 383 441 40,000  Level Memphis Center
03:33PM 36.3583 -92.8703 340° North 385 443 40,000  Level Memphis Center
03:34PM 36.4717 -92.9228 340° North 388 447 40,000  Level Memphis Center
03:35PM 36.5750 -92.9697 340° North 390 449 40,000  Level Memphis Center
03:36PM 36.6786 -93.0189 339° North 391 450 40,000  Level Memphis Center
03:38PM 36.7856 -93.0678 340° North 400 460 40,000  Level Memphis Center
03:39PM 36.9158 -93.1286 340° North 403 464 40,000  Level Kansas City Center
03:40PM 37.0225 -93.1789 339° North 403 464 40,000  Level Kansas City Center
03:41PM 37.1286 -93.2283 340° North 404 465 40,000  Level Kansas City Center
03:42PM 37.2353 -93.2789 339° North 404 465 40,000  Level Kansas City Center
03:43PM 37.3406 -93.3269 340° North 404 465 40,000 -480 Level Kansas City Center
03:44PM 37.4653 -93.3939 337° Northwest 403 464 39,100 -900 Descending Kansas City Center
03:45PM 37.5700 -93.4528 336° Northwest 403 464 38,200 -960 Descending Kansas City Center
03:46PM 37.6758 -93.5114 336° Northwest 408 470 37,200 -960 Descending Kansas City Center
03:47PM 37.7831 -93.5714 336° Northwest 412 474 36,300 -960 Descending Kansas City Center
03:48PM 37.8869 -93.6300 336° Northwest 412 474 35,300 -960 Descending Kansas City Center
03:49PM 37.9922 -93.6897 336° Northwest 411 473 34,400 -1,200 Descending Kansas City Center
03:50PM 38.0989 -93.7511 336° Northwest 413 475 32,900 -1,860 Descending Kansas City Center
03:51PM 38.2067 -93.8119 336° Northwest 417 480 30,600 -2,340 Descending Kansas City Center
03:52PM 38.3144 -93.8711 337° Northwest 420 483 28,100 -2,580 Descending Kansas City Center
03:53PM 38.4367 -93.9411 336° Northwest 406 467 25,300 -2,400 Descending Kansas City Center
03:54PM 38.5256 -93.9897 337° Northwest 394 453 23,300 -2,100 Descending Kansas City Center
03:55PM 38.6286 -94.0497 336° Northwest 369 425 21,000 -2,040 Descending Kansas City Center
03:56PM 38.7094 -94.1072 331° Northwest 353 406 19,100 -1,920 Descending Kansas City Center
03:57PM 38.7850 -94.1914 319° Northwest 326 375 17,100 -1,980 Descending Kansas City Center
03:58PM 38.8497 -94.2603 320° Northwest 319 367 15,100 -1,860 Descending Kansas City Center
03:59PM 38.9108 -94.3283 319° Northwest 308 354 13,300 -1,500 Descending Kansas City Center
04:00PM 38.9817 -94.4058 320° Northwest 299 344 12,000 -660 Descending Kansas City Center
04:01PM 39.0394 -94.4669 321° Northwest 284 327 12,000 -300 Level Kansas City Center
04:02PM 39.1031 -94.5372 319° Northwest 275 316 11,400 -660 Descending Kansas City Center
04:03PM 39.1567 -94.5956 320° Northwest 265 305 10,700 -840 Descending Kansas City Center
04:04PM 39.2200 -94.6225 342° North 240 276 9,700 -1,080 Descending Kansas City Center
04:05PM 39.2797 -94.6003 16° North 235 270 8,500 -1,980 Descending Kansas City Center
04:06PM 39.3469 -94.5794 13° North 225 259 5,700 -2,040 Descending Kansas City Center
04:07PM 39.3886 -94.6022 337° Northwest 204 235 4,400 -1,560 Descending Kansas City Center
04:09PM 39.3717 -94.6692 252° West 174 200 2,500 -1,320 Descending Kansas City Center
04:10PM 39.3403 -94.6911 208° Southwest 139 160 1,700 -780 Descending Kansas City Center
04:11PM 39.3017 -94.7033 194° South 136 157 1,000 -720 Descending Kansas City Center